sensor_id;sensor_type;location;lat;lon;timestamp;temperature;humidity
39695;DHT22;25367;-35.352;149.036;2023-04-15T08:39:49;21.10;58.60
39695;DHT22;25367;-35.352;149.036;2023-04-15T08:42:23;21.10;59.70
39695;DHT22;25367;-35.352;149.036;2023-04-15T08:44:54;21.30;59.50
39695;DHT22;25367;-35.352;149.036;2023-04-15T08:47:27;21.50;59.30
39695;DHT22;25367;-35.352;149.036;2023-04-15T08:49:58;21.70;59.00
39695;DHT22;25367;-35.352;149.036;2023-04-15T08:52:29;21.80;58.80
39695;DHT22;25367;-35.352;149.036;2023-04-15T08:55:03;21.90;58.70
39695;DHT22;25367;-35.352;149.036;2023-04-15T08:57:33;22.00;58.70
39695;DHT22;25367;-35.352;149.036;2023-04-15T09:00:04;22.10;59.60
39695;DHT22;25367;-35.352;149.036;2023-04-15T09:02:34;22.10;59.70
39695;DHT22;25367;-35.352;149.036;2023-04-15T09:05:04;22.30;59.90
39695;DHT22;25367;-35.352;149.036;2023-04-15T09:07:34;22.30;59.70
39695;DHT22;25367;-35.352;149.036;2023-04-15T09:10:08;22.30;59.50
39695;DHT22;25367;-35.352;149.036;2023-04-15T09:12:38;22.40;59.30
39695;DHT22;25367;-35.352;149.036;2023-04-15T09:15:09;22.40;59.10
39695;DHT22;25367;-35.352;149.036;2023-04-15T09:17:43;22.50;59.00
39695;DHT22;25367;-35.352;149.036;2023-04-15T09:20:14;22.50;58.90
39695;DHT22;25367;-35.352;149.036;2023-04-15T09:22:44;22.50;58.80
39695;DHT22;25367;-35.352;149.036;2023-04-15T09:25:29;22.60;58.70
39695;DHT22;25367;-35.352;149.036;2023-04-15T09:27:59;22.60;58.50
39695;DHT22;25367;-35.352;149.036;2023-04-15T09:30:29;22.60;58.70
39695;DHT22;25367;-35.352;149.036;2023-04-15T09:32:59;22.60;58.70
39695;DHT22;25367;-35.352;149.036;2023-04-15T09:35:29;22.70;58.80
39695;DHT22;25367;-35.352;149.036;2023-04-15T09:38:03;22.70;58.70
39695;DHT22;25367;-35.352;149.036;2023-04-15T09:40:36;22.70;58.60
39695;DHT22;25367;-35.352;149.036;2023-04-15T09:43:06;22.70;58.60
39695;DHT22;25367;-35.352;149.036;2023-04-15T09:45:36;22.70;58.60
39695;DHT22;25367;-35.352;149.036;2023-04-15T09:48:20;22.70;58.60
39695;DHT22;25367;-35.352;149.036;2023-04-15T09:50:50;22.80;58.40
39695;DHT22;25367;-35.352;149.036;2023-04-15T09:53:20;22.70;58.50
39695;DHT22;25367;-35.352;149.036;2023-04-15T09:55:57;22.80;58.50
39695;DHT22;25367;-35.352;149.036;2023-04-15T09:58:27;22.80;58.50
39695;DHT22;25367;-35.352;149.036;2023-04-15T10:00:58;22.80;58.50
39695;DHT22;25367;-35.352;149.036;2023-04-15T10:03:28;22.80;58.50
39695;DHT22;25367;-35.352;149.036;2023-04-15T10:05:59;22.80;58.50
39695;DHT22;25367;-35.352;149.036;2023-04-15T10:08:30;22.80;58.40
39695;DHT22;25367;-35.352;149.036;2023-04-15T10:11:02;22.80;58.40
39695;DHT22;25367;-35.352;149.036;2023-04-15T10:13:32;22.80;58.40
39695;DHT22;25367;-35.352;149.036;2023-04-15T10:16:05;22.80;58.40
39695;DHT22;25367;-35.352;149.036;2023-04-15T10:18:37;22.80;58.40
39695;DHT22;25367;-35.352;149.036;2023-04-15T10:21:09;22.80;58.40
39695;DHT22;25367;-35.352;149.036;2023-04-15T10:23:39;22.90;58.40
39695;DHT22;25367;-35.352;149.036;2023-04-15T10:26:12;22.80;58.30
39695;DHT22;25367;-35.352;149.036;2023-04-15T10:28:42;22.80;58.30
39695;DHT22;25367;-35.352;149.036;2023-04-15T10:31:14;22.90;58.30
39695;DHT22;25367;-35.352;149.036;2023-04-15T10:33:44;22.90;58.40
39695;DHT22;25367;-35.352;149.036;2023-04-15T10:36:14;22.90;58.40
39695;DHT22;25367;-35.352;149.036;2023-04-15T10:38:44;22.90;58.40
39695;DHT22;25367;-35.352;149.036;2023-04-15T10:41:18;22.90;58.40
39695;DHT22;25367;-35.352;149.036;2023-04-15T10:43:52;22.90;58.40
39695;DHT22;25367;-35.352;149.036;2023-04-15T10:46:33;22.90;58.90
39695;DHT22;25367;-35.352;149.036;2023-04-15T10:49:07;22.90;58.40
39695;DHT22;25367;-35.352;149.036;2023-04-15T10:51:38;22.90;58.60
39695;DHT22;25367;-35.352;149.036;2023-04-15T10:54:13;22.90;58.20
39695;DHT22;25367;-35.352;149.036;2023-04-15T10:56:45;22.90;58.10
39695;DHT22;25367;-35.352;149.036;2023-04-15T10:59:18;22.90;58.00
39695;DHT22;25367;-35.352;149.036;2023-04-15T11:01:54;22.90;58.00
39695;DHT22;25367;-35.352;149.036;2023-04-15T11:04:51;23.00;57.90
39695;DHT22;25367;-35.352;149.036;2023-04-15T11:07:37;23.00;57.70
39695;DHT22;25367;-35.352;149.036;2023-04-15T11:13:21;23.00;57.60
39695;DHT22;25367;-35.352;149.036;2023-04-15T11:16:00;22.90;57.70
39695;DHT22;25367;-35.352;149.036;2023-04-15T11:18:31;22.90;57.70
39695;DHT22;25367;-35.352;149.036;2023-04-15T11:21:02;23.00;57.70
39695;DHT22;25367;-35.352;149.036;2023-04-15T11:23:37;23.00;57.60
39695;DHT22;25367;-35.352;149.036;2023-04-15T11:26:08;22.90;57.50
39695;DHT22;25367;-35.352;149.036;2023-04-15T11:28:41;22.90;57.50
39695;DHT22;25367;-35.352;149.036;2023-04-15T11:31:10;23.00;57.50
39695;DHT22;25367;-35.352;149.036;2023-04-15T11:33:52;22.90;57.30
39695;DHT22;25367;-35.352;149.036;2023-04-15T11:36:24;22.90;57.60
39695;DHT22;25367;-35.352;149.036;2023-04-15T11:38:55;23.00;57.70
39695;DHT22;25367;-35.352;149.036;2023-04-15T11:41:25;23.00;57.50
39695;DHT22;25367;-35.352;149.036;2023-04-15T11:43:58;23.00;57.60
39695;DHT22;25367;-35.352;149.036;2023-04-15T11:46:31;23.00;57.30
39695;DHT22;25367;-35.352;149.036;2023-04-15T11:49:00;23.00;57.30
39695;DHT22;25367;-35.352;149.036;2023-04-15T11:51:33;23.00;57.30
39695;DHT22;25367;-35.352;149.036;2023-04-15T11:54:02;23.10;57.20
39695;DHT22;25367;-35.352;149.036;2023-04-15T11:56:32;23.10;57.20
39695;DHT22;25367;-35.352;149.036;2023-04-15T11:59:04;23.10;57.10
39695;DHT22;25367;-35.352;149.036;2023-04-15T12:01:34;23.20;57.10
39695;DHT22;25367;-35.352;149.036;2023-04-15T12:04:11;23.10;57.00
39695;DHT22;25367;-35.352;149.036;2023-04-15T12:06:40;23.20;57.00
39695;DHT22;25367;-35.352;149.036;2023-04-15T12:09:11;23.20;57.00
39695;DHT22;25367;-35.352;149.036;2023-04-15T12:11:42;23.20;56.90
39695;DHT22;25367;-35.352;149.036;2023-04-15T12:14:22;23.20;56.80
39695;DHT22;25367;-35.352;149.036;2023-04-15T12:16:53;23.20;56.80
39695;DHT22;25367;-35.352;149.036;2023-04-15T12:19:26;23.20;56.70
39695;DHT22;25367;-35.352;149.036;2023-04-15T12:21:59;23.30;56.70
39695;DHT22;25367;-35.352;149.036;2023-04-15T12:24:31;23.30;56.90
39695;DHT22;25367;-35.352;149.036;2023-04-15T12:27:03;23.30;56.70
39695;DHT22;25367;-35.352;149.036;2023-04-15T12:29:36;23.30;56.70
39695;DHT22;25367;-35.352;149.036;2023-04-15T12:32:04;23.30;56.70
39695;DHT22;25367;-35.352;149.036;2023-04-15T12:34:34;23.20;56.60
39695;DHT22;25367;-35.352;149.036;2023-04-15T12:37:05;23.20;56.80
39695;DHT22;25367;-35.352;149.036;2023-04-15T12:39:36;23.30;56.70
39695;DHT22;25367;-35.352;149.036;2023-04-15T12:42:06;23.30;56.60
39695;DHT22;25367;-35.352;149.036;2023-04-15T12:44:38;23.30;56.50
39695;DHT22;25367;-35.352;149.036;2023-04-15T12:47:08;23.30;56.50
39695;DHT22;25367;-35.352;149.036;2023-04-15T12:49:38;23.30;56.40
39695;DHT22;25367;-35.352;149.036;2023-04-15T12:52:08;23.30;56.30
39695;DHT22;25367;-35.352;149.036;2023-04-15T12:54:38;23.30;56.30
39695;DHT22;25367;-35.352;149.036;2023-04-15T12:57:07;23.40;56.30
39695;DHT22;25367;-35.352;149.036;2023-04-15T12:59:39;23.40;56.30
39695;DHT22;25367;-35.352;149.036;2023-04-15T13:02:09;23.30;56.30
39695;DHT22;25367;-35.352;149.036;2023-04-15T13:04:38;23.40;56.30
39695;DHT22;25367;-35.352;149.036;2023-04-15T13:07:07;23.30;56.20
39695;DHT22;25367;-35.352;149.036;2023-04-15T13:09:37;23.30;56.20
39695;DHT22;25367;-35.352;149.036;2023-04-15T13:12:07;23.30;56.10
39695;DHT22;25367;-35.352;149.036;2023-04-15T13:14:39;23.40;56.10
39695;DHT22;25367;-35.352;149.036;2023-04-15T13:17:09;23.40;56.10
39695;DHT22;25367;-35.352;149.036;2023-04-15T13:19:38;23.30;56.10
39695;DHT22;25367;-35.352;149.036;2023-04-15T13:22:08;23.40;56.10
39695;DHT22;25367;-35.352;149.036;2023-04-15T13:24:37;23.40;56.00
39695;DHT22;25367;-35.352;149.036;2023-04-15T13:27:06;23.30;55.90
39695;DHT22;25367;-35.352;149.036;2023-04-15T13:29:43;23.40;55.90
39695;DHT22;25367;-35.352;149.036;2023-04-15T13:32:12;23.40;56.00
39695;DHT22;25367;-35.352;149.036;2023-04-15T13:34:42;23.30;56.00
39695;DHT22;25367;-35.352;149.036;2023-04-15T13:37:11;23.40;56.00
39695;DHT22;25367;-35.352;149.036;2023-04-15T13:39:40;23.40;56.00
39695;DHT22;25367;-35.352;149.036;2023-04-15T13:42:10;23.30;56.00
39695;DHT22;25367;-35.352;149.036;2023-04-15T13:44:42;23.40;56.10
39695;DHT22;25367;-35.352;149.036;2023-04-15T13:47:12;23.40;56.10
39695;DHT22;25367;-35.352;149.036;2023-04-15T13:49:41;23.40;56.10
39695;DHT22;25367;-35.352;149.036;2023-04-15T22:16:43;19.90;60.50
39695;DHT22;25367;-35.352;149.036;2023-04-15T22:19:12;19.90;62.30
39695;DHT22;25367;-35.352;149.036;2023-04-15T22:21:42;20.10;62.30
39695;DHT22;25367;-35.352;149.036;2023-04-15T22:24:11;20.20;62.30
39695;DHT22;25367;-35.352;149.036;2023-04-15T22:26:41;20.40;61.90
39695;DHT22;25367;-35.352;149.036;2023-04-15T22:29:12;20.50;61.60
39695;DHT22;25367;-35.352;149.036;2023-04-15T22:31:43;20.60;61.70
39695;DHT22;25367;-35.352;149.036;2023-04-15T22:34:13;20.70;61.50
39695;DHT22;25367;-35.352;149.036;2023-04-15T22:36:43;20.80;61.30
39695;DHT22;25367;-35.352;149.036;2023-04-15T22:39:12;20.80;61.40
39695;DHT22;25367;-35.352;149.036;2023-04-15T22:41:42;20.90;61.40
39695;DHT22;25367;-35.352;149.036;2023-04-15T22:44:12;20.90;61.20
39695;DHT22;25367;-35.352;149.036;2023-04-15T22:46:43;21.00;61.10
39695;DHT22;25367;-35.352;149.036;2023-04-15T22:49:13;21.00;60.90
39695;DHT22;25367;-35.352;149.036;2023-04-15T22:51:42;21.00;60.80
39695;DHT22;25367;-35.352;149.036;2023-04-15T22:54:11;21.10;60.70
39695;DHT22;25367;-35.352;149.036;2023-04-15T22:56:41;21.10;60.50
39695;DHT22;25367;-35.352;149.036;2023-04-15T22:59:10;21.10;60.70
39695;DHT22;25367;-35.352;149.036;2023-04-15T23:01:42;21.20;60.60
39695;DHT22;25367;-35.352;149.036;2023-04-15T23:04:11;21.20;60.70
39695;DHT22;25367;-35.352;149.036;2023-04-15T23:06:41;21.20;60.80
39695;DHT22;25367;-35.352;149.036;2023-04-15T23:09:10;21.20;60.70
39695;DHT22;25367;-35.352;149.036;2023-04-15T23:11:39;21.20;60.70
39695;DHT22;25367;-35.352;149.036;2023-04-15T23:14:09;21.20;60.70
39695;DHT22;25367;-35.352;149.036;2023-04-15T23:16:38;21.30;60.70
39695;DHT22;25367;-35.352;149.036;2023-04-15T23:19:09;21.30;61.30
39695;DHT22;25367;-35.352;149.036;2023-04-15T23:21:39;21.40;60.50
39695;DHT22;25367;-35.352;149.036;2023-04-15T23:24:08;21.40;60.40
39695;DHT22;25367;-35.352;149.036;2023-04-15T23:26:38;21.40;60.40
39695;DHT22;25367;-35.352;149.036;2023-04-15T23:29:08;21.40;60.30
39695;DHT22;25367;-35.352;149.036;2023-04-15T23:31:38;21.50;60.10
39695;DHT22;25367;-35.352;149.036;2023-04-15T23:34:09;21.40;60.00
39695;DHT22;25367;-35.352;149.036;2023-04-15T23:36:39;21.50;59.90
39695;DHT22;25367;-35.352;149.036;2023-04-15T23:39:08;21.50;60.40
39695;DHT22;25367;-35.352;149.036;2023-04-15T23:41:39;21.50;59.70
39695;DHT22;25367;-35.352;149.036;2023-04-15T23:44:08;21.50;59.60
39695;DHT22;25367;-35.352;149.036;2023-04-15T23:46:38;21.50;59.60
39695;DHT22;25367;-35.352;149.036;2023-04-15T23:49:10;21.60;59.60
39695;DHT22;25367;-35.352;149.036;2023-04-15T23:51:39;21.60;59.60
39695;DHT22;25367;-35.352;149.036;2023-04-15T23:54:09;21.60;59.50
39695;DHT22;25367;-35.352;149.036;2023-04-15T23:56:39;21.60;59.50
39695;DHT22;25367;-35.352;149.036;2023-04-15T23:59:09;21.60;59.50
